Time;durP1;ratioP1;P1;durP2;ratioP2;P2;SDS_P1;SDS_P2;PMS_P1;PMS_P2;Temp;Humidity;BMP_temperature;BMP_pressure;BME280_temperature;BME280_humidity;BME280_pressure;Samples;Min_cycle;Max_cycle;Signal;HPM_P1;HPM_P2
2023/07/08 00:00:10;;;;;;;4.53;3.08;;;29.00;35.60;;;;;;5148162;27;45280;-69
2023/07/08 00:02:37;;;;;;;3.22;2.85;;;29.00;35.60;;;;;;5148317;27;45430;-69
2023/07/08 00:05:05;;;;;;;5.70;3.17;;;29.00;35.60;;;;;;5148434;27;45373;-69
2023/07/08 00:07:31;;;;;;;4.97;2.95;;;28.90;35.60;;;;;;5148014;27;46705;-69
2023/07/08 00:09:58;;;;;;;4.32;2.85;;;28.90;35.50;;;;;;5148055;27;45452;-69
2023/07/08 00:12:25;;;;;;;4.35;2.47;;;28.90;35.50;;;;;;5148104;27;45337;-69
2023/07/08 00:14:53;;;;;;;4.38;2.95;;;28.90;35.50;;;;;;5148417;27;45433;-69
2023/07/08 00:17:20;;;;;;;5.55;3.00;;;28.90;35.40;;;;;;5147844;27;46460;-69
2023/07/08 00:19:47;;;;;;;4.50;2.63;;;28.90;35.60;;;;;;5147935;27;45324;-69
2023/07/08 00:22:14;;;;;;;3.95;2.80;;;28.90;35.60;;;;;;5148062;27;45309;-69
2023/07/08 00:24:42;;;;;;;5.80;2.83;;;28.90;35.50;;;;;;5148183;27;45261;-69
2023/07/08 00:27:10;;;;;;;5.45;2.70;;;28.80;35.40;;;;;;5147779;27;47246;-69
2023/07/08 00:29:37;;;;;;;4.82;2.90;;;28.80;35.40;;;;;;5147854;27;45328;-69
2023/07/08 00:32:11;;;;;;;2.97;2.60;;;28.80;35.30;;;;;;5147995;27;45335;-69
2023/07/08 00:34:38;;;;;;;3.88;2.78;;;28.80;35.40;;;;;;5148005;27;45357;-69
2023/07/08 00:37:05;;;;;;;4.22;2.70;;;28.80;35.40;;;;;;5147746;27;45523;-69
2023/07/08 00:39:31;;;;;;;3.97;3.15;;;28.70;35.40;;;;;;5147551;27;45320;-69
2023/07/08 00:41:59;;;;;;;4.10;2.92;;;28.70;35.20;;;;;;5147661;27;45403;-69
2023/07/08 00:44:26;;;;;;;4.78;2.35;;;28.70;35.90;;;;;;5147842;27;45473;-69
2023/07/08 00:46:58;;;;;;;4.05;2.75;;;28.70;35.40;;;;;;5147466;27;45539;-69
2023/07/08 00:49:30;;;;;;;4.63;2.67;;;28.70;35.40;;;;;;5147491;27;45421;-69
2023/07/08 00:51:57;;;;;;;5.07;2.92;;;28.70;35.50;;;;;;5146214;27;45388;-69
2023/07/08 00:54:24;;;;;;;3.38;2.70;;;28.60;35.40;;;;;;5147763;27;45309;-69
2023/07/08 00:56:52;;;;;;;3.63;2.58;;;28.60;35.30;;;;;;5147496;27;47275;-69
2023/07/08 00:59:22;;;;;;;8.93;2.63;;;28.60;35.40;;;;;;5147296;27;45374;-69
2023/07/08 01:01:49;;;;;;;4.60;3.25;;;28.60;35.40;;;;;;5147664;27;45326;-69
2023/07/08 01:04:19;;;;;;;5.32;2.83;;;28.60;35.40;;;;;;5147618;27;45430;-69
2023/07/08 01:06:48;;;;;;;3.40;2.78;;;28.60;35.40;;;;;;5147778;27;45470;-69
2023/07/08 01:09:15;;;;;;;2.92;2.55;;;28.60;35.50;;;;;;5150881;27;45302;-69
2023/07/08 01:11:42;;;;;;;3.22;2.60;;;28.60;35.40;;;;;;5151144;27;45352;-69
2023/07/08 01:14:10;;;;;;;5.63;2.90;;;28.60;35.40;;;;;;5151154;27;45415;-69
2023/07/08 01:16:36;;;;;;;3.17;2.72;;;28.60;35.50;;;;;;5150923;27;46412;-69
2023/07/08 01:19:03;;;;;;;2.75;2.40;;;28.50;35.40;;;;;;5150755;27;45306;-69
2023/07/08 01:21:32;;;;;;;3.92;2.72;;;28.50;35.50;;;;;;5150890;27;45300;-69
2023/07/08 01:24:00;;;;;;;3.58;2.88;;;28.50;35.60;;;;;;5151167;27;45402;-69
2023/07/08 01:26:27;;;;;;;3.40;2.40;;;28.50;35.70;;;;;;5150552;27;46398;-69
2023/07/08 01:28:54;;;;;;;6.55;2.63;;;28.50;35.70;;;;;;5150535;27;45337;-69
2023/07/08 01:31:21;;;;;;;3.33;2.80;;;28.50;35.80;;;;;;5150759;27;45236;-69
2023/07/08 01:33:48;;;;;;;3.17;2.88;;;28.40;35.80;;;;;;5151230;27;45328;-69
2023/07/08 01:36:15;;;;;;;3.17;2.75;;;28.40;35.90;;;;;;5150419;27;46387;-69
2023/07/08 01:38:41;;;;;;;3.85;2.55;;;28.40;35.90;;;;;;5150481;27;45351;-69
2023/07/08 01:41:12;;;;;;;5.63;2.80;;;28.40;36.00;;;;;;5150617;27;45188;-69
2023/07/08 01:43:38;;;;;;;4.05;2.97;;;28.40;36.00;;;;;;5150605;27;45298;-69
2023/07/08 01:46:05;;;;;;;2.92;2.58;;;28.40;36.10;;;;;;5150238;27;45316;-69
2023/07/08 01:48:35;;;;;;;3.40;2.58;;;28.30;36.10;;;;;;5150302;27;45277;-69
2023/07/08 01:51:04;;;;;;;4.90;2.90;;;28.30;36.20;;;;;;5150387;27;45181;-69
2023/07/08 01:53:33;;;;;;;3.95;2.60;;;28.30;36.20;;;;;;5150649;27;45394;-69
2023/07/08 01:56:00;;;;;;;3.78;2.67;;;28.30;36.30;;;;;;5150047;27;46408;-69
2023/07/08 01:58:28;;;;;;;3.10;2.80;;;28.30;36.30;;;;;;5150232;27;45288;-69
2023/07/08 02:00:55;;;;;;;3.80;2.92;;;28.30;36.30;;;;;;5150159;27;45330;-69
2023/07/08 02:03:22;;;;;;;3.65;2.60;;;28.30;36.40;;;;;;5150390;27;45463;-69
2023/07/08 02:05:49;;;;;;;3.28;2.97;;;28.20;36.40;;;;;;5150176;27;47449;-69
2023/07/08 02:08:15;;;;;;;3.90;2.75;;;28.20;36.40;;;;;;5150185;27;45422;-69
2023/07/08 02:10:43;;;;;;;3.33;2.85;;;28.20;36.40;;;;;;5150159;27;45294;-69
2023/07/08 02:13:10;;;;;;;2.90;2.40;;;28.20;36.50;;;;;;5150191;27;45466;-69
2023/07/08 02:15:38;;;;;;;2.47;2.10;;;28.20;36.50;;;;;;5149980;27;45493;-69
2023/07/08 02:18:05;;;;;;;5.57;3.30;;;28.10;36.50;;;;;;5148978;27;45267;-69
2023/07/08 02:20:31;;;;;;;3.75;2.50;;;28.10;36.50;;;;;;5149368;27;45253;-69
2023/07/08 02:22:58;;;;;;;3.22;2.72;;;28.10;36.50;;;;;;5150171;27;45393;-69
2023/07/08 02:25:25;;;;;;;2.83;2.33;;;28.10;36.60;;;;;;5149637;27;45297;-69
2023/07/08 02:27:54;;;;;;;3.58;2.50;;;28.10;36.70;;;;;;5149595;27;45441;-69
2023/07/08 02:30:21;;;;;;;3.15;2.33;;;28.10;36.70;;;;;;5149779;27;45291;-69
2023/07/08 02:32:57;;;;;;;4.65;2.58;;;28.00;36.70;;;;;;5150197;27;45440;-69
2023/07/08 02:35:25;;;;;;;4.78;2.20;;;28.00;36.70;;;;;;5149682;27;46713;-69
2023/07/08 02:37:52;;;;;;;3.63;2.33;;;28.00;36.80;;;;;;5149764;27;45290;-68
2023/07/08 02:40:19;;;;;;;3.80;2.70;;;28.00;36.80;;;;;;5149807;27;45386;-68
2023/07/08 02:42:45;;;;;;;4.15;2.80;;;28.00;36.80;;;;;;5150155;27;45229;-69
2023/07/08 02:45:13;;;;;;;5.63;2.70;;;28.00;36.90;;;;;;5149582;27;46381;-69
2023/07/08 02:47:39;;;;;;;3.80;2.63;;;28.00;36.90;;;;;;5149521;27;45383;-68
2023/07/08 02:50:09;;;;;;;3.28;2.45;;;28.00;36.90;;;;;;5149529;27;45398;-68
2023/07/08 02:52:36;;;;;;;3.75;2.40;;;27.90;36.90;;;;;;5149436;27;45294;-68
2023/07/08 02:55:03;;;;;;;3.97;2.60;;;27.90;36.90;;;;;;5149286;27;46708;-69
2023/07/08 02:57:30;;;;;;;3.83;2.90;;;27.90;37.00;;;;;;5149344;27;45296;-68
2023/07/08 02:59:56;;;;;;;3.88;1.92;;;27.90;36.90;;;;;;5149295;27;45305;-69
2023/07/08 03:02:23;;;;;;;3.35;2.42;;;27.90;37.00;;;;;;5149478;27;45439;-68
2023/07/08 03:04:50;;;;;;;3.65;2.85;;;27.90;37.10;;;;;;5149068;27;45299;-69
2023/07/08 03:07:18;;;;;;;3.63;2.72;;;27.90;37.10;;;;;;5149255;27;45268;-68
2023/07/08 03:09:45;;;;;;;2.85;2.40;;;27.80;37.10;;;;;;5149128;27;45394;-68
2023/07/08 03:12:12;;;;;;;3.67;2.58;;;27.80;37.10;;;;;;5149336;27;45259;-69
2023/07/08 03:14:39;;;;;;;3.28;2.63;;;27.80;37.20;;;;;;5149011;27;46415;-69
2023/07/08 03:17:06;;;;;;;3.13;2.15;;;27.80;37.20;;;;;;5148935;27;45322;-69
2023/07/08 03:19:33;;;;;;;2.83;2.20;;;27.80;37.20;;;;;;5148840;27;45336;-69
2023/07/08 03:22:02;;;;;;;3.13;2.50;;;27.80;37.30;;;;;;5148977;27;45406;-68
2023/07/08 03:24:30;;;;;;;3.38;2.42;;;27.80;37.30;;;;;;5148664;27;46381;-68
2023/07/08 03:26:59;;;;;;;3.00;2.45;;;27.80;37.30;;;;;;5148828;27;45255;-69
2023/07/08 03:29:26;;;;;;;5.20;3.10;;;27.80;37.40;;;;;;5148375;27;45421;-69
2023/07/08 03:31:53;;;;;;;2.75;2.40;;;27.70;37.30;;;;;;5149036;27;45306;-69
2023/07/08 03:34:19;;;;;;;5.38;2.88;;;27.70;37.40;;;;;;5148965;27;46359;-68
2023/07/08 03:36:48;;;;;;;2.90;2.60;;;27.70;38.00;;;;;;5148720;27;45314;-69
2023/07/08 03:39:15;;;;;;;3.65;2.40;;;27.70;37.40;;;;;;5148828;27;45251;-69
2023/07/08 03:41:43;;;;;;;3.63;2.50;;;27.70;37.50;;;;;;5148762;27;45338;-69
2023/07/08 03:44:10;;;;;;;2.78;2.40;;;27.70;37.60;;;;;;5148419;27;46336;-69
2023/07/08 03:46:37;;;;;;;4.13;2.78;;;27.70;37.50;;;;;;5148523;27;45252;-69
2023/07/08 03:49:03;;;;;;;3.17;2.50;;;27.70;38.40;;;;;;5148495;27;45493;-69
2023/07/08 03:51:32;;;;;;;3.05;2.58;;;27.60;37.60;;;;;;5148103;27;45492;-69
2023/07/08 03:53:59;;;;;;;3.20;2.80;;;27.60;37.60;;;;;;5148254;27;46690;-69
2023/07/08 03:56:26;;;;;;;3.10;2.67;;;27.60;37.80;;;;;;5148205;27;45325;-69
2023/07/08 03:58:54;;;;;;;3.05;2.30;;;27.60;37.80;;;;;;5148275;27;45282;-69
2023/07/08 04:01:23;;;;;;;2.72;2.40;;;27.60;37.80;;;;;;5148255;27;45288;-69
2023/07/08 04:03:51;;;;;;;2.85;2.13;;;27.60;37.80;;;;;;5147875;27;46740;-68
2023/07/08 04:06:18;;;;;;;4.35;2.70;;;27.60;37.90;;;;;;5145504;27;45287;-67
2023/07/08 04:08:46;;;;;;;3.25;2.70;;;27.60;37.90;;;;;;5148260;27;45327;-69
2023/07/08 04:11:13;;;;;;;4.55;2.55;;;27.60;37.90;;;;;;5148153;27;45353;-69
2023/07/08 04:13:39;;;;;;;5.00;2.40;;;27.50;37.90;;;;;;5147909;27;47254;-69
2023/07/08 04:16:08;;;;;;;3.55;2.60;;;27.50;38.10;;;;;;5148019;27;45253;-69
2023/07/08 04:18:36;;;;;;;3.22;2.50;;;27.50;38.10;;;;;;5148214;27;45408;-67
2023/07/08 04:21:02;;;;;;;4.05;2.50;;;27.50;38.10;;;;;;5148129;27;45398;-68
2023/07/08 04:23:29;;;;;;;4.78;2.95;;;27.50;38.20;;;;;;5148149;27;45216;-68
2023/07/08 04:25:56;;;;;;;2.65;2.20;;;27.50;38.00;;;;;;5147770;27;45263;-69
2023/07/08 04:28:23;;;;;;;2.63;2.28;;;27.50;38.00;;;;;;5147856;27;45281;-69
2023/07/08 04:30:50;;;;;;;2.55;2.35;;;27.50;38.00;;;;;;5147926;27;45471;-68
2023/07/08 04:33:18;;;;;;;3.08;2.28;;;27.50;38.00;;;;;;5147748;27;45350;-68
2023/07/08 04:35:45;;;;;;;3.08;2.20;;;27.50;38.20;;;;;;5148125;27;45274;-69
2023/07/08 04:38:15;;;;;;;3.83;2.45;;;27.50;38.20;;;;;;5147787;27;45260;-68
2023/07/08 04:40:42;;;;;;;3.67;2.40;;;27.50;38.40;;;;;;5148037;27;45466;-68
2023/07/08 04:43:08;;;;;;;3.53;2.50;;;27.50;38.50;;;;;;5150233;27;45496;-68
2023/07/08 04:45:37;;;;;;;2.70;2.20;;;27.50;38.60;;;;;;5151340;27;45307;-68
2023/07/08 04:48:12;;;;;;;2.28;2.08;;;27.50;38.80;;;;;;5151552;27;45425;-68
2023/07/08 04:50:41;;;;;;;4.13;2.10;;;27.50;38.90;;;;;;5151400;27;45317;-68
2023/07/08 04:53:08;;;;;;;3.28;2.17;;;27.40;39.10;;;;;;5151201;27;46422;-68
2023/07/08 04:55:35;;;;;;;2.75;2.30;;;27.40;39.10;;;;;;5151130;27;45285;-68
2023/07/08 04:58:02;;;;;;;3.33;2.50;;;27.40;39.30;;;;;;5151397;27;45200;-68
2023/07/08 05:00:29;;;;;;;2.50;2.30;;;27.40;39.40;;;;;;5151500;27;45450;-68
2023/07/08 05:02:56;;;;;;;2.75;2.38;;;27.40;39.60;;;;;;5151111;27;46361;-68
2023/07/08 05:05:23;;;;;;;2.58;2.25;;;27.40;39.50;;;;;;5150914;27;45378;-68
2023/07/08 05:07:51;;;;;;;2.47;2.20;;;27.40;40.30;;;;;;5151138;27;45330;-68
2023/07/08 05:10:18;;;;;;;2.70;2.15;;;27.30;39.40;;;;;;5150948;27;45383;-68
2023/07/08 05:12:45;;;;;;;3.13;1.85;;;27.30;39.50;;;;;;5150766;27;46294;-68
2023/07/08 05:15:12;;;;;;;3.75;2.17;;;27.30;39.50;;;;;;5150886;27;45278;-68
2023/07/08 05:17:39;;;;;;;2.83;2.15;;;27.30;39.40;;;;;;5150851;27;45484;-68
2023/07/08 05:20:07;;;;;;;2.20;1.95;;;27.30;39.50;;;;;;5150976;27;45515;-69
2023/07/08 05:22:34;;;;;;;2.90;2.13;;;27.30;39.60;;;;;;5150579;27;45306;-68
2023/07/08 05:25:03;;;;;;;2.15;1.95;;;27.20;39.60;;;;;;5150633;27;45248;-68
2023/07/08 05:27:30;;;;;;;2.95;2.10;;;27.20;39.60;;;;;;5150970;27;45178;-69
2023/07/08 05:29:57;;;;;;;2.40;1.90;;;27.20;39.70;;;;;;5150817;27;45453;-68
2023/07/08 05:32:29;;;;;;;2.97;2.10;;;27.20;39.70;;;;;;5150242;27;46324;-68
2023/07/08 05:34:56;;;;;;;2.78;2.13;;;27.20;39.70;;;;;;5150536;27;45357;-68
2023/07/08 05:37:25;;;;;;;2.08;1.58;;;27.20;39.80;;;;;;5150916;27;45309;-68
2023/07/08 05:39:52;;;;;;;1.90;1.80;;;27.10;40.10;;;;;;5150642;27;45644;-68
2023/07/08 05:42:20;;;;;;;3.97;2.28;;;27.10;39.90;;;;;;5150355;27;45366;-68
2023/07/08 05:44:47;;;;;;;2.25;2.05;;;27.10;40.00;;;;;;5150417;27;45370;-67
2023/07/08 05:47:14;;;;;;;2.15;1.70;;;27.10;40.00;;;;;;5150482;27;45322;-67
2023/07/08 05:49:41;;;;;;;2.42;2.22;;;27.10;39.80;;;;;;5150495;27;45389;-67
2023/07/08 05:52:10;;;;;;;2.15;1.83;;;27.10;40.00;;;;;;5149934;27;45676;-67
2023/07/08 05:54:38;;;;;;;2.63;1.85;;;27.00;40.00;;;;;;5150013;27;45341;-68
2023/07/08 05:57:05;;;;;;;2.50;2.13;;;27.00;40.60;;;;;;5150343;27;45241;-68
2023/07/08 05:59:34;;;;;;;2.45;1.90;;;27.00;40.00;;;;;;5150379;27;45446;-68
2023/07/08 06:02:00;;;;;;;2.35;1.88;;;27.00;40.00;;;;;;5150103;27;46354;-68
2023/07/08 06:04:28;;;;;;;1.92;1.73;;;27.00;39.90;;;;;;5150177;27;45276;-67
2023/07/08 06:06:54;;;;;;;2.70;2.20;;;27.00;39.90;;;;;;5150196;27;45323;-68
2023/07/08 06:09:21;;;;;;;3.55;2.08;;;27.00;40.00;;;;;;5150252;27;45482;-68
2023/07/08 06:11:48;;;;;;;2.08;1.70;;;26.90;40.80;;;;;;5149758;27;46704;-68
2023/07/08 06:14:15;;;;;;;1.70;1.60;;;26.90;40.40;;;;;;5149900;27;45284;-68
2023/07/08 06:16:43;;;;;;;1.52;1.42;;;26.90;40.50;;;;;;5150113;27;45355;-68
2023/07/08 06:19:10;;;;;;;2.28;1.55;;;26.90;40.60;;;;;;5150179;27;45314;-68
2023/07/08 06:21:36;;;;;;;2.03;1.75;;;26.90;40.70;;;;;;5149608;27;45319;-67
2023/07/08 06:24:04;;;;;;;2.20;1.80;;;26.90;40.70;;;;;;5149875;27;45230;-67
2023/07/08 06:26:30;;;;;;;2.30;1.70;;;26.90;40.60;;;;;;5149821;27;45343;-67
2023/07/08 06:28:57;;;;;;;3.08;1.88;;;26.90;40.60;;;;;;5149934;27;45316;-67
2023/07/08 06:31:24;;;;;;;1.83;1.50;;;26.90;40.60;;;;;;5149337;27;47298;-68
2023/07/08 06:33:52;;;;;;;2.17;1.90;;;26.90;40.70;;;;;;5149565;27;45249;-67
2023/07/08 06:36:19;;;;;;;2.35;1.90;;;26.80;40.70;;;;;;5149702;27;45263;-68
2023/07/08 06:38:46;;;;;;;2.13;1.92;;;26.80;40.70;;;;;;5149813;27;45414;-68
2023/07/08 06:41:13;;;;;;;3.33;1.70;;;26.80;40.60;;;;;;5149292;27;45307;-67
2023/07/08 06:43:39;;;;;;;2.05;1.85;;;26.80;40.50;;;;;;5149235;27;46307;-66
2023/07/08 06:46:06;;;;;;;2.78;1.77;;;26.80;40.60;;;;;;5149442;27;45291;-67
2023/07/08 06:48:33;;;;;;;2.38;1.67;;;26.80;40.60;;;;;;5149358;27;45331;-67
2023/07/08 06:51:01;;;;;;;2.08;1.70;;;26.80;41.20;;;;;;5148791;27;45760;-67
2023/07/08 06:53:28;;;;;;;1.75;1.52;;;26.80;40.70;;;;;;5149275;27;45381;-67
2023/07/08 06:55:55;;;;;;;1.98;1.67;;;26.80;40.90;;;;;;5148741;27;45328;-67
2023/07/08 06:58:22;;;;;;;2.65;1.90;;;26.80;41.00;;;;;;5149248;27;45424;-67
2023/07/08 07:00:49;;;;;;;1.95;1.60;;;26.80;40.90;;;;;;5148765;27;45336;-67
2023/07/08 07:03:15;;;;;;;2.08;1.58;;;26.80;41.00;;;;;;5149016;27;45446;-67
2023/07/08 07:05:43;;;;;;;1.80;1.67;;;26.80;40.90;;;;;;5148379;27;45380;-67
2023/07/08 07:08:11;;;;;;;1.55;1.45;;;26.80;41.10;;;;;;5149269;27;45332;-67
2023/07/08 07:10:38;;;;;;;1.88;1.63;;;26.80;41.10;;;;;;5148710;27;45326;-67
2023/07/08 07:13:05;;;;;;;2.10;1.67;;;26.80;41.30;;;;;;5148877;27;45291;-67
2023/07/08 07:15:32;;;;;;;2.63;2.00;;;26.80;41.00;;;;;;5148823;27;45304;-67
2023/07/08 07:17:59;;;;;;;3.10;1.65;;;26.80;41.10;;;;;;5148982;27;45301;-67
2023/07/08 07:20:26;;;;;;;2.40;1.60;;;26.80;40.90;;;;;;5148275;27;46529;-68
2023/07/08 07:22:52;;;;;;;1.85;1.70;;;26.80;41.00;;;;;;5148218;27;45321;-67
2023/07/08 07:25:21;;;;;;;2.47;1.75;;;26.80;41.00;;;;;;5148802;27;45262;-68
2023/07/08 07:27:47;;;;;;;2.03;1.60;;;26.80;40.90;;;;;;5148913;27;45380;-68
2023/07/08 07:30:15;;;;;;;2.67;1.67;;;26.90;40.90;;;;;;5148349;27;46401;-68
2023/07/08 07:32:42;;;;;;;2.20;1.65;;;26.90;40.90;;;;;;5148510;27;45495;-68
2023/07/08 07:35:12;;;;;;;2.88;1.50;;;26.90;40.90;;;;;;5148581;27;45363;-69
2023/07/08 07:37:39;;;;;;;2.15;1.75;;;26.90;40.90;;;;;;5148294;27;45339;-68
2023/07/08 07:40:12;;;;;;;3.08;1.60;;;26.90;40.80;;;;;;5148309;27;45235;-68
2023/07/08 07:42:40;;;;;;;3.50;1.50;;;27.00;40.90;;;;;;5148539;27;45351;-69
2023/07/08 07:45:07;;;;;;;4.60;1.88;;;27.00;41.00;;;;;;5148740;27;45275;-69
2023/07/08 07:47:34;;;;;;;4.38;2.08;;;27.00;41.10;;;;;;5140533;27;45560;-70
2023/07/08 07:50:02;;;;;;;3.80;2.30;;;27.00;41.00;;;;;;5146480;27;45655;-67
2023/07/08 07:52:28;;;;;;;2.88;2.17;;;27.00;41.10;;;;;;5130294;27;45382;-67
2023/07/08 07:54:55;;;;;;;3.35;2.00;;;27.10;41.00;;;;;;5145117;27;45465;-67
2023/07/08 07:57:22;;;;;;;2.83;2.17;;;27.10;41.00;;;;;;5145521;27;45351;-67
2023/07/08 07:59:50;;;;;;;2.22;1.80;;;27.10;41.20;;;;;;5156723;27;46672;-67
2023/07/08 08:02:17;;;;;;;5.30;1.83;;;27.10;40.90;;;;;;5150860;27;45706;-67
2023/07/08 08:04:44;;;;;;;2.65;2.15;;;27.10;41.30;;;;;;5147830;27;45405;-67
2023/07/08 08:07:11;;;;;;;4.68;2.08;;;27.10;41.50;;;;;;5148358;27;45244;-67
2023/07/08 08:09:38;;;;;;;5.28;2.53;;;27.10;41.40;;;;;;5147704;27;47361;-67
2023/07/08 08:12:10;;;;;;;5.68;2.38;;;27.10;41.40;;;;;;5147722;27;45416;-67
2023/07/08 08:14:37;;;;;;;3.30;2.00;;;27.20;41.40;;;;;;5151695;27;45483;-68
2023/07/08 08:17:05;;;;;;;2.13;1.88;;;27.20;41.30;;;;;;5158229;27;45423;-67
2023/07/08 08:19:32;;;;;;;4.00;1.90;;;27.20;41.20;;;;;;5155887;27;46277;-67
2023/07/08 08:21:59;;;;;;;3.42;2.10;;;27.20;41.20;;;;;;5150602;27;45444;-68
2023/07/08 08:24:26;;;;;;;5.55;1.92;;;27.20;41.20;;;;;;5136520;27;45464;-68
2023/07/08 08:26:53;;;;;;;3.78;2.25;;;27.20;41.10;;;;;;5127064;27;45415;-68
2023/07/08 08:29:19;;;;;;;3.38;2.00;;;27.30;41.30;;;;;;5130324;27;46311;-68
2023/07/08 08:31:46;;;;;;;3.25;2.00;;;27.30;41.30;;;;;;5144307;27;45513;-67
2023/07/08 08:34:14;;;;;;;3.55;1.92;;;27.30;41.20;;;;;;5142500;27;45386;-67
2023/07/08 08:36:42;;;;;;;4.05;1.90;;;27.30;41.20;;;;;;5147478;27;45452;-67
2023/07/08 08:39:09;;;;;;;3.60;1.83;;;27.30;41.20;;;;;;5138991;27;47301;-68
2023/07/08 08:41:37;;;;;;;3.65;1.88;;;27.40;41.10;;;;;;5143439;27;45435;-68
2023/07/08 08:44:04;;;;;;;2.15;1.95;;;27.40;41.20;;;;;;5147540;27;45425;-68
2023/07/08 08:46:35;;;;;;;4.88;2.00;;;27.40;41.30;;;;;;5147670;27;45242;-68
2023/07/08 08:49:06;;;;;;;2.22;1.70;;;27.40;41.20;;;;;;5147086;27;45515;-68
2023/07/08 08:51:34;;;;;;;3.10;1.73;;;27.40;41.20;;;;;;5146757;27;45357;-68
2023/07/08 08:54:00;;;;;;;2.33;1.35;;;27.40;41.20;;;;;;5147427;27;45449;-67
2023/07/08 08:56:29;;;;;;;3.83;2.15;;;27.40;41.40;;;;;;5147435;27;45355;-68
2023/07/08 08:58:59;;;;;;;3.47;1.60;;;27.50;41.90;;;;;;5147193;27;45531;-67
2023/07/08 09:01:26;;;;;;;3.33;1.88;;;27.50;42.00;;;;;;5146729;27;45458;-68
2023/07/08 09:04:01;;;;;;;2.38;1.90;;;27.50;41.90;;;;;;5147580;27;45257;-68
2023/07/08 09:06:29;;;;;;;3.83;1.92;;;27.50;40.80;;;;;;5147426;27;45470;-68
2023/07/08 09:08:58;;;;;;;2.72;1.80;;;27.50;42.40;;;;;;5146891;27;46700;-68
2023/07/08 09:11:42;;;;;;;2.95;2.05;;;27.40;45.60;;;;;;5146913;27;45357;-68
2023/07/08 09:14:15;;;;;;;2.70;2.03;;;27.50;46.40;;;;;;5147123;27;45321;-68
2023/07/08 09:16:45;;;;;;;4.90;1.85;;;27.40;47.00;;;;;;5147394;27;45254;-67
2023/07/08 09:19:13;;;;;;;2.58;1.70;;;27.50;46.40;;;;;;5146850;27;47304;-68
2023/07/08 09:21:43;;;;;;;2.75;1.90;;;27.50;47.30;;;;;;5146779;27;45232;-68
2023/07/08 09:24:16;;;;;;;2.22;1.50;;;27.50;46.90;;;;;;5147123;27;45260;-67
2023/07/08 09:26:43;;;;;;;2.33;1.65;;;27.50;45.50;;;;;;5146766;27;45340;-68
2023/07/08 09:29:10;;;;;;;1.75;1.63;;;27.60;45.10;;;;;;5149381;27;46385;-69
2023/07/08 09:31:42;;;;;;;2.90;1.98;;;27.60;45.00;;;;;;5149685;27;45445;-69
2023/07/08 09:34:10;;;;;;;5.03;1.80;;;27.60;45.10;;;;;;5150699;27;45335;-69
2023/07/08 09:36:40;;;;;;;1.98;1.80;;;27.70;45.00;;;;;;5150059;27;45299;-69
2023/07/08 09:39:14;;;;;;;2.33;1.52;;;27.70;44.80;;;;;;5150280;27;47359;-69
2023/07/08 09:41:42;;;;;;;2.72;1.33;;;27.70;45.00;;;;;;5149184;27;45419;-68
2023/07/08 09:44:19;;;;;;;3.70;2.00;;;27.80;45.20;;;;;;5150283;27;45217;-68
2023/07/08 09:46:46;;;;;;;7.40;1.90;;;27.80;44.90;;;;;;5149933;27;45504;-68
2023/07/08 09:49:17;;;;;;;12.55;2.20;;;27.80;44.90;;;;;;5150069;27;47005;-70
2023/07/08 09:51:44;;;;;;;10.18;2.00;;;27.80;45.00;;;;;;5146986;27;45410;-74
2023/07/08 09:54:11;;;;;;;8.88;2.15;;;27.80;45.30;;;;;;5141353;27;45339;-75
2023/07/08 09:56:42;;;;;;;6.40;1.67;;;27.90;45.10;;;;;;5147872;27;45504;-77
2023/07/08 09:59:12;;;;;;;4.32;1.58;;;27.90;45.00;;;;;;5150269;27;46482;-75
2023/07/08 10:01:39;;;;;;;2.85;1.67;;;28.00;45.90;;;;;;5148330;27;45317;-69
2023/07/08 10:04:07;;;;;;;5.20;1.73;;;28.00;45.40;;;;;;5155645;27;45441;-69
2023/07/08 10:06:35;;;;;;;4.03;1.70;;;28.00;45.50;;;;;;5149971;27;45563;-70
2023/07/08 10:09:02;;;;;;;6.10;2.00;;;28.10;45.30;;;;;;5141213;27;47745;-70
2023/07/08 10:11:30;;;;;;;2.85;1.67;;;28.10;46.40;;;;;;5139390;27;45469;-70
2023/07/08 10:14:02;;;;;;;3.60;1.48;;;28.10;45.60;;;;;;5144654;27;45520;-68
2023/07/08 10:16:30;;;;;;;2.90;1.50;;;28.20;45.50;;;;;;5148175;27;45489;-67
2023/07/08 10:18:58;;;;;;;1.80;1.52;;;28.20;45.20;;;;;;5148432;27;46672;-67
2023/07/08 10:21:31;;;;;;;4.10;1.63;;;28.20;45.10;;;;;;5150611;27;45406;-68
2023/07/08 10:24:01;;;;;;;2.53;1.48;;;28.20;44.80;;;;;;5157693;27;45307;-70
2023/07/08 10:26:29;;;;;;;3.38;1.60;;;28.30;44.80;;;;;;5148680;27;45422;-69
2023/07/08 10:29:09;;;;;;;2.47;1.67;;;28.30;44.70;;;;;;5148491;27;45222;-69
2023/07/08 10:31:39;;;;;;;1.75;1.33;;;28.40;44.70;;;;;;5151329;27;45721;-69
2023/07/08 10:34:15;;;;;;;2.03;1.60;;;28.40;44.50;;;;;;5157269;27;45444;-69
2023/07/08 10:36:46;;;;;;;3.88;1.98;;;28.50;44.60;;;;;;5158336;27;45430;-69
2023/07/08 10:39:24;;;;;;;4.32;1.70;;;28.40;44.20;;;;;;5158317;27;48004;-70
2023/07/08 10:41:55;;;;;;;3.70;1.40;;;28.50;44.40;;;;;;5146296;27;45465;-70
2023/07/08 10:44:26;;;;;;;4.53;1.77;;;28.50;44.20;;;;;;5148948;27;45398;-70
2023/07/08 10:46:58;;;;;;;2.58;1.73;;;28.60;44.10;;;;;;5151127;27;45287;-70
2023/07/08 10:49:43;;;;;;;1.70;1.60;;;28.60;43.90;;;;;;5145661;27;45393;-70
2023/07/08 10:52:22;;;;;;;3.38;1.50;;;28.60;43.60;;;;;;5143938;27;45322;-70
2023/07/08 10:55:00;;;;;;;2.05;1.50;;;28.70;43.70;;;;;;5148609;27;45325;-70
2023/07/08 10:57:43;;;;;;;2.03;1.40;;;28.70;43.80;;;;;;5149369;27;45427;-70
2023/07/08 11:00:17;;;;;;;2.20;1.30;;;28.70;43.60;;;;;;5143789;27;45597;-68
2023/07/08 11:03:35;;;;;;;3.47;1.60;;;28.80;44.00;;;;;;5135747;27;45532;-70
2023/07/08 11:06:04;;;;;;;3.75;1.85;;;28.80;44.50;;;;;;5108205;27;45596;-70
2023/07/08 11:08:33;;;;;;;2.03;1.40;;;28.80;45.40;;;;;;5145675;27;45586;-70
2023/07/08 11:11:02;;;;;;;2.20;1.50;;;28.90;45.20;;;;;;5141993;27;45458;-68
2023/07/08 11:13:29;;;;;;;4.20;1.67;;;28.90;45.50;;;;;;5152623;27;45521;-68
2023/07/08 11:16:01;;;;;;;4.55;1.70;;;29.00;46.10;;;;;;5154028;27;45242;-69
2023/07/08 11:18:31;;;;;;;2.40;1.52;;;29.00;45.70;;;;;;5146984;27;45342;-70
2023/07/08 11:21:00;;;;;;;2.80;1.60;;;29.10;46.00;;;;;;5130468;27;45329;-70
2023/07/08 11:23:30;;;;;;;1.77;1.63;;;29.10;46.00;;;;;;5140046;27;46492;-68
2023/07/08 11:26:06;;;;;;;4.07;2.05;;;29.20;45.90;;;;;;5143816;27;45458;-68
2023/07/08 11:28:33;;;;;;;2.75;1.90;;;29.30;45.90;;;;;;5144651;27;45497;-68
2023/07/08 11:31:02;;;;;;;2.47;1.88;;;29.40;45.60;;;;;;5143263;27;46350;-69
2023/07/08 11:33:29;;;;;;;4.75;1.95;;;29.40;45.50;;;;;;5134204;27;45477;-69
2023/07/08 11:35:58;;;;;;;3.10;1.90;;;29.40;45.50;;;;;;5144006;27;45431;-70
2023/07/08 11:38:25;;;;;;;2.22;1.67;;;29.50;45.30;;;;;;5132756;27;45584;-70
2023/07/08 11:40:53;;;;;;;4.38;1.92;;;29.60;45.30;;;;;;5142771;27;45475;-70
2023/07/08 11:43:21;;;;;;;3.45;1.70;;;29.60;45.10;;;;;;5141776;27;45406;-68
2023/07/08 11:45:49;;;;;;;1.75;1.45;;;29.70;45.10;;;;;;5147480;27;45273;-68
2023/07/08 11:48:22;;;;;;;1.80;1.70;;;29.80;44.90;;;;;;5147745;27;45279;-70
2023/07/08 11:50:49;;;;;;;2.05;1.85;;;29.80;45.00;;;;;;5138980;27;45403;-70
2023/07/08 11:53:33;;;;;;;1.90;1.70;;;29.80;45.20;;;;;;5142981;27;45418;-68
2023/07/08 11:56:01;;;;;;;1.33;1.23;;;29.90;45.20;;;;;;5146543;27;45456;-70
2023/07/08 11:58:28;;;;;;;1.63;1.40;;;29.90;44.60;;;;;;5151007;27;45363;-70
2023/07/08 12:01:00;;;;;;;3.92;1.60;;;30.00;43.80;;;;;;5133478;27;45463;-69
2023/07/08 12:03:33;;;;;;;3.83;1.63;;;30.10;43.00;;;;;;5138096;27;45295;-68
2023/07/08 12:06:05;;;;;;;3.47;1.65;;;30.10;42.70;;;;;;5147506;27;45209;-69
2023/07/08 12:08:36;;;;;;;3.65;1.60;;;30.20;42.90;;;;;;5135498;27;45520;-69
2023/07/08 12:11:03;;;;;;;2.83;1.52;;;30.20;43.00;;;;;;5143348;27;46550;-70
2023/07/08 12:13:30;;;;;;;2.22;1.40;;;30.20;42.70;;;;;;5144826;27;45453;-69
2023/07/08 12:15:56;;;;;;;2.58;1.40;;;30.20;41.90;;;;;;5143738;27;45495;-69
2023/07/08 12:18:26;;;;;;;1.45;1.35;;;30.30;41.20;;;;;;5134594;27;45312;-70
2023/07/08 12:20:56;;;;;;;1.48;1.20;;;30.30;41.30;;;;;;5143499;27;45378;-70
2023/07/08 12:23:24;;;;;;;2.97;1.45;;;30.40;41.30;;;;;;5141343;27;45492;-69
2023/07/08 12:25:51;;;;;;;1.90;1.40;;;30.40;41.50;;;;;;5135865;27;45317;-70
2023/07/08 12:28:18;;;;;;;2.50;1.60;;;30.40;41.60;;;;;;5136284;27;45327;-71
2023/07/08 12:30:45;;;;;;;2.45;1.35;;;30.50;41.50;;;;;;5141052;27;46411;-72
2023/07/08 12:33:13;;;;;;;1.73;1.40;;;30.50;40.70;;;;;;5141236;27;45373;-70
2023/07/08 12:35:40;;;;;;;2.22;1.60;;;30.50;39.80;;;;;;5144241;27;45321;-70
2023/07/08 12:38:16;;;;;;;1.50;1.40;;;30.50;39.40;;;;;;5140531;27;45418;-69
2023/07/08 12:40:42;;;;;;;2.67;1.67;;;30.50;39.70;;;;;;5141520;27;46734;-70
2023/07/08 12:43:10;;;;;;;1.77;1.30;;;30.60;39.60;;;;;;5145890;27;45350;-70
2023/07/08 12:45:37;;;;;;;1.48;1.38;;;30.60;38.60;;;;;;5138006;27;45383;-70
2023/07/08 12:48:04;;;;;;;2.40;1.58;;;30.70;38.40;;;;;;5147048;27;45423;-70
2023/07/08 12:50:31;;;;;;;2.63;1.63;;;30.80;38.80;;;;;;5152984;27;45442;-71
2023/07/08 12:52:58;;;;;;;1.63;1.52;;;30.80;39.30;;;;;;5160418;27;45321;-69